Time;durP1;ratioP1;P1;durP2;ratioP2;P2;SDS_P1;SDS_P2;PMS_P1;PMS_P2;Temp;Humidity;BMP_temperature;BMP_pressure;BME280_temperature;BME280_humidity;BME280_pressure;Samples;Min_cycle;Max_cycle;Signal;HPM_P1;HPM_P2
2022/03/21 00:00:38;;;;;;;15.18;9.93;;;;;;;;;;7378345;19;21050;-77
2022/03/21 00:03:09;;;;;;;13.85;9.70;;;;;;;;;;7381366;19;20144;-78
2022/03/21 00:05:38;;;;;;;13.30;9.90;;;;;;;;;;7383834;19;20136;-77
2022/03/21 00:08:09;;;;;;;12.20;9.40;;;;;;;;;;7379575;19;20145;-78
2022/03/21 00:10:38;;;;;;;16.17;10.23;;;;;;;;;;7381770;19;20650;-77
2022/03/21 00:13:08;;;;;;;14.52;9.55;;;;;;;;;;7381566;19;20170;-78
2022/03/21 00:15:40;;;;;;;15.43;10.50;;;;;;;;;;7380199;19;20120;-77
2022/03/21 00:18:13;;;;;;;13.07;9.73;;;;;;;;;;7382555;19;20131;-78
2022/03/21 00:20:43;;;;;;;14.23;10.25;;;;;;;;;;7380640;19;20139;-77
2022/03/21 00:23:15;;;;;;;14.75;10.23;;;;;;;;;;7382774;19;20660;-77
2022/03/21 00:25:45;;;;;;;15.27;9.98;;;;;;;;;;7381875;19;20170;-79
2022/03/21 00:28:15;;;;;;;12.38;9.23;;;;;;;;;;7379787;19;20127;-78
2022/03/21 00:30:47;;;;;;;13.80;9.52;;;;;;;;;;7383900;19;20146;-78
2022/03/21 00:33:17;;;;;;;14.50;8.98;;;;;;;;;;7380007;19;20127;-78
2022/03/21 00:35:50;;;;;;;16.83;9.90;;;;;;;;;;7377942;19;20169;-78
2022/03/21 00:38:20;;;;;;;12.30;9.43;;;;;;;;;;7382213;19;20174;-79
2022/03/21 00:40:51;;;;;;;13.95;9.63;;;;;;;;;;7381342;19;20652;-79
2022/03/21 00:43:21;;;;;;;12.60;9.27;;;;;;;;;;7381280;19;20604;-76
2022/03/21 00:45:54;;;;;;;18.20;10.75;;;;;;;;;;7375104;19;20139;-77
2022/03/21 00:48:24;;;;;;;13.60;9.38;;;;;;;;;;7378748;19;20225;-77
2022/03/21 00:50:57;;;;;;;15.57;10.43;;;;;;;;;;7376675;19;20207;-77
2022/03/21 00:53:27;;;;;;;13.30;8.95;;;;;;;;;;7378069;19;20519;-77
2022/03/21 00:55:56;;;;;;;14.82;10.30;;;;;;;;;;7375146;19;20183;-77
2022/03/21 00:58:26;;;;;;;14.68;9.63;;;;;;;;;;7376763;19;20202;-78
2022/03/21 01:01:01;;;;;;;12.40;9.85;;;;;;;;;;7379262;19;20143;-76
2022/03/21 01:03:30;;;;;;;13.30;9.35;;;;;;;;;;7377163;19;20519;-77
2022/03/21 01:06:00;;;;;;;14.32;9.00;;;;;;;;;;7376620;19;20616;-77
2022/03/21 01:08:30;;;;;;;15.82;8.95;;;;;;;;;;7376193;19;20237;-77
2022/03/21 01:10:59;;;;;;;14.00;8.85;;;;;;;;;;7378871;19;20154;-77
2022/03/21 01:13:29;;;;;;;15.10;9.82;;;;;;;;;;7376958;19;20143;-77
2022/03/21 01:16:01;;;;;;;11.68;8.77;;;;;;;;;;7379094;19;20147;-76
2022/03/21 01:18:31;;;;;;;11.23;8.43;;;;;;;;;;7372674;19;20132;-76
2022/03/21 01:21:01;;;;;;;13.70;9.23;;;;;;;;;;7379095;19;20129;-77
2022/03/21 01:23:31;;;;;;;16.15;10.90;;;;;;;;;;7377418;19;20215;-77
2022/03/21 01:26:00;;;;;;;15.68;9.98;;;;;;;;;;7374934;19;20696;-77
2022/03/21 01:28:30;;;;;;;14.15;9.80;;;;;;;;;;7368200;19;20157;-78
2022/03/21 01:31:04;;;;;;;13.73;9.50;;;;;;;;;;7371098;19;20646;-77
2022/03/21 01:33:35;;;;;;;12.38;9.18;;;;;;;;;;7379301;19;20174;-79
2022/03/21 01:36:05;;;;;;;17.95;9.90;;;;;;;;;;7375565;19;20144;-77
2022/03/21 01:38:34;;;;;;;16.45;9.93;;;;;;;;;;7377186;19;20164;-81
2022/03/21 01:41:04;;;;;;;15.15;8.88;;;;;;;;;;7379526;19;20162;-76
2022/03/21 01:43:34;;;;;;;13.13;9.57;;;;;;;;;;7377729;19;20127;-77
2022/03/21 01:46:07;;;;;;;11.73;8.30;;;;;;;;;;7377885;19;20632;-77
2022/03/21 01:48:37;;;;;;;14.57;9.57;;;;;;;;;;7374935;19;20127;-76
2022/03/21 01:51:07;;;;;;;17.00;8.48;;;;;;;;;;7376755;19;20140;-77
2022/03/21 01:56:19;;;;;;;14.30;9.45;;;;;;;;;;7372654;19;20151;-76
2022/03/21 01:58:48;;;;;;;13.45;9.35;;;;;;;;;;7376176;19;20470;-77
2022/03/21 02:01:21;;;;;;;13.52;9.32;;;;;;;;;;7374736;19;20139;-77
2022/03/21 02:03:51;;;;;;;14.73;9.48;;;;;;;;;;7373110;19;20153;-78
2022/03/21 02:06:21;;;;;;;13.25;8.98;;;;;;;;;;7372288;19;20136;-78
2022/03/21 02:08:51;;;;;;;14.25;10.05;;;;;;;;;;7371788;19;20211;-79
2022/03/21 02:11:21;;;;;;;13.88;10.77;;;;;;;;;;7378283;19;20142;-79
2022/03/21 02:13:51;;;;;;;14.65;9.88;;;;;;;;;;7376015;19;20167;-78
2022/03/21 02:16:23;;;;;;;15.00;10.40;;;;;;;;;;7374225;19;20214;-79
2022/03/21 02:18:53;;;;;;;14.93;11.18;;;;;;;;;;7372834;19;20143;-77
2022/03/21 02:21:25;;;;;;;16.42;10.23;;;;;;;;;;7376858;19;20145;-77
2022/03/21 02:23:58;;;;;;;14.35;9.38;;;;;;;;;;7374294;19;20907;-77
2022/03/21 02:26:31;;;;;;;15.20;9.88;;;;;;;;;;7375540;19;20167;-77
2022/03/21 02:29:01;;;;;;;13.65;9.40;;;;;;;;;;7372102;19;20147;-76
2022/03/21 02:31:32;;;;;;;14.65;10.00;;;;;;;;;;7375715;19;20172;-76
2022/03/21 02:34:03;;;;;;;15.05;9.32;;;;;;;;;;7377830;19;20219;-76
2022/03/21 02:36:34;;;;;;;15.50;10.30;;;;;;;;;;7373265;19;20178;-76
2022/03/21 02:39:04;;;;;;;11.70;9.00;;;;;;;;;;7377541;19;20139;-76
2022/03/21 02:41:36;;;;;;;13.43;9.60;;;;;;;;;;7375437;19;20226;-75
2022/03/21 02:44:06;;;;;;;16.55;9.73;;;;;;;;;;7398344;19;20140;-76
2022/03/21 02:46:36;;;;;;;14.68;10.05;;;;;;;;;;7413372;19;20140;-76
2022/03/21 02:49:06;;;;;;;11.88;8.25;;;;;;;;;;7413185;19;20141;-76
2022/03/21 02:51:40;;;;;;;15.05;9.15;;;;;;;;;;7415845;19;20134;-76
2022/03/21 02:54:10;;;;;;;14.13;10.45;;;;;;;;;;7411867;19;20148;-76
2022/03/21 02:56:43;;;;;;;13.38;9.40;;;;;;;;;;7414061;19;20180;-76
2022/03/21 02:59:12;;;;;;;14.32;8.93;;;;;;;;;;7413015;19;20135;-77
2022/03/21 03:01:42;;;;;;;14.82;10.18;;;;;;;;;;7414694;19;20589;-77
2022/03/21 03:04:11;;;;;;;11.18;8.65;;;;;;;;;;7412857;19;20172;-77
2022/03/21 03:06:43;;;;;;;16.75;11.43;;;;;;;;;;7422315;19;20148;-78
2022/03/21 03:09:13;;;;;;;13.80;10.07;;;;;;;;;;7420005;19;20187;-76
2022/03/21 03:11:45;;;;;;;13.10;8.95;;;;;;;;;;7423356;19;20180;-76
2022/03/21 03:14:14;;;;;;;11.38;9.07;;;;;;;;;;7429231;19;20592;-76
2022/03/21 03:16:44;;;;;;;12.18;8.20;;;;;;;;;;7429440;19;20136;-76
2022/03/21 03:19:14;;;;;;;13.10;8.65;;;;;;;;;;7428560;19;20161;-74
2022/03/21 03:21:46;;;;;;;13.85;9.75;;;;;;;;;;7409828;19;20144;-76
2022/03/21 03:24:18;;;;;;;14.63;9.63;;;;;;;;;;7394073;19;20156;-76
2022/03/21 03:26:50;;;;;;;13.73;9.10;;;;;;;;;;7392540;19;20592;-75
2022/03/21 03:29:20;;;;;;;17.30;9.27;;;;;;;;;;7385978;19;20634;-76
2022/03/21 03:31:52;;;;;;;15.43;9.40;;;;;;;;;;7388301;19;20756;-77
2022/03/21 03:34:21;;;;;;;16.23;8.75;;;;;;;;;;7385469;19;20194;-76
2022/03/21 03:36:53;;;;;;;16.60;9.85;;;;;;;;;;7387597;19;20723;-77
2022/03/21 03:39:23;;;;;;;13.10;9.50;;;;;;;;;;7385516;19;20143;-78
2022/03/21 03:41:55;;;;;;;15.40;10.60;;;;;;;;;;7388284;19;20131;-79
2022/03/21 03:44:25;;;;;;;11.55;8.70;;;;;;;;;;7384764;19;20608;-77
2022/03/21 03:46:58;;;;;;;13.15;9.57;;;;;;;;;;7382491;19;20503;-77
2022/03/21 03:49:27;;;;;;;14.55;9.90;;;;;;;;;;7385425;19;20171;-75
2022/03/21 03:51:57;;;;;;;11.40;9.05;;;;;;;;;;7383938;19;20132;-76
2022/03/21 03:54:26;;;;;;;13.18;9.70;;;;;;;;;;7380867;19;20164;-76
2022/03/21 03:56:58;;;;;;;14.15;9.73;;;;;;;;;;7381235;19;20154;-78
2022/03/21 03:59:28;;;;;;;18.55;9.07;;;;;;;;;;7382292;19;20898;-77
2022/03/21 04:01:57;;;;;;;16.15;10.30;;;;;;;;;;7378694;19;20605;-78
2022/03/21 04:04:24;;;;;;;13.07;8.40;;;;;;;;;;7380296;19;20150;-78
2022/03/21 04:06:54;;;;;;;14.48;8.98;;;;;;;;;;7382010;19;20728;-77
2022/03/21 04:09:24;;;;;;;11.48;9.15;;;;;;;;;;7384982;19;20143;-77
2022/03/21 04:11:53;;;;;;;10.48;7.65;;;;;;;;;;7381325;19;20139;-75
2022/03/21 04:14:25;;;;;;;16.73;10.43;;;;;;;;;;7383653;19;20140;-76
2022/03/21 04:16:57;;;;;;;12.15;8.45;;;;;;;;;;7381128;19;20160;-76
2022/03/21 04:19:29;;;;;;;11.88;8.10;;;;;;;;;;7383783;19;20207;-76
2022/03/21 04:21:58;;;;;;;13.00;8.63;;;;;;;;;;7385878;19;20139;-77
2022/03/21 04:24:28;;;;;;;11.13;8.75;;;;;;;;;;7381076;19;20170;-77
2022/03/21 04:26:57;;;;;;;13.23;7.90;;;;;;;;;;7383802;19;20236;-78
2022/03/21 04:29:30;;;;;;;12.63;9.40;;;;;;;;;;7381599;19;20136;-78
2022/03/21 04:32:01;;;;;;;13.73;8.45;;;;;;;;;;7380897;19;20265;-78
2022/03/21 04:34:30;;;;;;;16.13;10.15;;;;;;;;;;7381075;19;20131;-77
2022/03/21 04:37:00;;;;;;;14.50;9.45;;;;;;;;;;7381094;19;20138;-77
2022/03/21 04:39:29;;;;;;;13.07;10.27;;;;;;;;;;7382110;19;20140;-78
2022/03/21 04:41:59;;;;;;;15.25;10.10;;;;;;;;;;7380392;19;20143;-78
2022/03/21 04:44:32;;;;;;;19.05;10.88;;;;;;;;;;7381893;19;20614;-78
2022/03/21 04:47:01;;;;;;;12.98;9.43;;;;;;;;;;7371059;19;20155;-78
2022/03/21 04:49:31;;;;;;;13.52;9.80;;;;;;;;;;7377194;19;20600;-80
2022/03/21 04:52:00;;;;;;;14.55;8.93;;;;;;;;;;7377674;19;20543;-77
2022/03/21 04:54:30;;;;;;;13.40;10.52;;;;;;;;;;7373635;19;20174;-76
2022/03/21 04:56:59;;;;;;;14.13;9.65;;;;;;;;;;7377784;19;20159;-76
2022/03/21 04:59:31;;;;;;;14.75;9.93;;;;;;;;;;7370700;19;20178;-76
2022/03/21 05:02:01;;;;;;;13.95;10.50;;;;;;;;;;7380871;19;20135;-74
2022/03/21 05:04:31;;;;;;;13.98;8.98;;;;;;;;;;7380485;19;21131;-78
2022/03/21 05:07:00;;;;;;;15.60;9.95;;;;;;;;;;7380644;19;20451;-78
2022/03/21 05:09:30;;;;;;;15.43;10.40;;;;;;;;;;7376286;19;20136;-77
2022/03/21 05:12:00;;;;;;;16.02;9.73;;;;;;;;;;7380932;19;20132;-77
2022/03/21 05:14:32;;;;;;;12.30;9.23;;;;;;;;;;7376849;19;20140;-78
2022/03/21 05:17:01;;;;;;;17.75;9.77;;;;;;;;;;7372510;19;20136;-78
2022/03/21 05:19:35;;;;;;;20.48;10.18;;;;;;;;;;7369063;19;20133;-78
2022/03/21 05:22:04;;;;;;;16.13;10.23;;;;;;;;;;7364054;19;20136;-77
2022/03/21 05:32:43;;;;;;;12.70;8.90;;;;;;;;;;7369701;19;20604;-78
2022/03/21 05:37:54;;;;;;;14.55;8.98;;;;;;;;;;7378854;19;20488;-77
2022/03/21 05:40:41;;;;;;;15.20;9.90;;;;;;;;;;7379125;19;20492;-77
2022/03/21 05:43:10;;;;;;;15.93;9.02;;;;;;;;;;7377507;19;20136;-79
2022/03/21 05:45:43;;;;;;;13.27;9.30;;;;;;;;;;7376568;19;20132;-77
2022/03/21 05:50:54;;;;;;;11.73;8.60;;;;;;;;;;7377083;19;20143;-78
2022/03/21 05:53:24;;;;;;;13.93;9.65;;;;;;;;;;7377336;19;20140;-78
2022/03/21 05:55:55;;;;;;;12.75;10.20;;;;;;;;;;7375489;19;20246;-80
2022/03/21 05:58:25;;;;;;;14.40;8.88;;;;;;;;;;7378984;19;20135;-79
2022/03/21 06:00:57;;;;;;;16.23;10.75;;;;;;;;;;7377443;19;20143;-79
2022/03/21 06:03:27;;;;;;;15.60;9.95;;;;;;;;;;7373290;19;20533;-78
2022/03/21 06:05:57;;;;;;;14.45;10.05;;;;;;;;;;7375418;19;20135;-78
2022/03/21 06:08:27;;;;;;;13.77;8.65;;;;;;;;;;7379516;19;20651;-78
2022/03/21 06:11:03;;;;;;;12.57;8.57;;;;;;;;;;7377677;19;20150;-78
2022/03/21 06:13:34;;;;;;;14.55;9.38;;;;;;;;;;7379662;19;20131;-79
2022/03/21 06:16:07;;;;;;;12.85;8.75;;;;;;;;;;7377429;19;20151;-78
2022/03/21 06:18:37;;;;;;;13.40;9.15;;;;;;;;;;7371233;19;20145;-78
2022/03/21 06:21:08;;;;;;;15.40;10.77;;;;;;;;;;7373096;19;20142;-79
2022/03/21 06:23:37;;;;;;;15.95;9.65;;;;;;;;;;7363006;19;20136;-78
2022/03/21 06:26:07;;;;;;;14.05;9.25;;;;;;;;;;7374889;19;20615;-78
2022/03/21 06:28:38;;;;;;;16.55;9.80;;;;;;;;;;7392925;19;20122;-78
2022/03/21 06:31:13;;;;;;;12.80;9.55;;;;;;;;;;7413988;19;20160;-78
2022/03/21 06:33:43;;;;;;;14.35;9.15;;;;;;;;;;7415604;19;20136;-77
2022/03/21 06:36:14;;;;;;;19.63;10.80;;;;;;;;;;7413751;19;20494;-78
2022/03/21 06:38:46;;;;;;;15.77;10.40;;;;;;;;;;7416193;19;20142;-78
2022/03/21 06:41:16;;;;;;;17.38;9.75;;;;;;;;;;7416355;19;20140;-78
2022/03/21 06:43:47;;;;;;;13.38;9.93;;;;;;;;;;7416851;19;20136;-78
2022/03/21 06:46:19;;;;;;;15.50;10.32;;;;;;;;;;7418329;19;20132;-78
2022/03/21 06:48:49;;;;;;;16.85;11.23;;;;;;;;;;7422165;19;20141;-78
2022/03/21 06:51:19;;;;;;;15.63;10.95;;;;;;;;;;7424787;19;20147;-80
2022/03/21 06:53:48;;;;;;;15.23;9.82;;;;;;;;;;7424109;19;20149;-79
2022/03/21 06:56:18;;;;;;;13.82;10.45;;;;;;;;;;7420917;19;20151;-77
2022/03/21 06:58:47;;;;;;;16.23;10.57;;;;;;;;;;7420526;19;21316;-76
2022/03/21 07:01:20;;;;;;;17.67;10.88;;;;;;;;;;7425386;19;20130;-77
2022/03/21 07:03:49;;;;;;;12.82;9.55;;;;;;;;;;7419284;19;20119;-77
2022/03/21 07:06:19;;;;;;;15.27;11.25;;;;;;;;;;7419976;19;20140;-77
2022/03/21 07:08:51;;;;;;;16.20;11.40;;;;;;;;;;7416794;19;20140;-77
2022/03/21 07:11:22;;;;;;;15.93;11.32;;;;;;;;;;7383508;19;20171;-77
2022/03/21 07:13:52;;;;;;;17.10;10.07;;;;;;;;;;7385852;19;20128;-78
2022/03/21 07:16:24;;;;;;;14.10;9.70;;;;;;;;;;7382516;19;20782;-78
2022/03/21 07:18:53;;;;;;;15.47;10.20;;;;;;;;;;7373287;19;20963;-78
2022/03/21 07:21:23;;;;;;;20.10;11.90;;;;;;;;;;7378950;19;20443;-79
2022/03/21 07:23:52;;;;;;;15.50;10.93;;;;;;;;;;7378275;19;20417;-79
2022/03/21 07:26:22;;;;;;;13.33;10.87;;;;;;;;;;7384185;19;20416;-77
2022/03/21 07:28:51;;;;;;;14.30;11.00;;;;;;;;;;7375841;19;20517;-78
2022/03/21 07:31:24;;;;;;;17.43;11.33;;;;;;;;;;7380308;19;20426;-78
2022/03/21 07:33:53;;;;;;;19.80;12.27;;;;;;;;;;7383410;19;20641;-77
2022/03/21 07:36:23;;;;;;;14.97;11.10;;;;;;;;;;7378568;19;20440;-80
2022/03/21 07:38:52;;;;;;;18.47;11.53;;;;;;;;;;7369564;19;20506;-75
2022/03/21 07:41:23;;;;;;;18.50;12.13;;;;;;;;;;7378376;19;20399;-75
2022/03/21 07:43:54;;;;;;;15.90;10.90;;;;;;;;;;7373228;19;21020;-74
2022/03/21 07:49:08;;;;;;;389.40;66.03;;;;;;;;;;7377763;19;20399;-75
2022/03/21 07:51:38;;;;;;;23.20;12.60;;;;;;;;;;7382070;19;20392;-75
2022/03/21 07:54:08;;;;;;;20.97;12.30;;;;;;;;;;7383836;19;20451;-76
2022/03/21 07:56:38;;;;;;;27.57;13.90;;;;;;;;;;7370017;19;20501;-74
2022/03/21 07:59:07;;;;;;;19.63;11.30;;;;;;;;;;7369984;19;20384;-76
2022/03/21 08:01:39;;;;;;;15.27;10.63;;;;;;;;;;7370221;19;20813;-82
2022/03/21 08:04:09;;;;;;;16.70;11.30;;;;;;;;;;7373224;19;20862;-80
2022/03/21 08:06:39;;;;;;;16.50;11.50;;;;;;;;;;7364452;19;20492;-78
2022/03/21 08:09:12;;;;;;;19.43;12.90;;;;;;;;;;7377065;19;20411;-79
2022/03/21 08:11:45;;;;;;;18.80;12.60;;;;;;;;;;7378077;19;20725;-78
2022/03/21 08:14:15;;;;;;;17.37;11.63;;;;;;;;;;7377452;19;20379;-78
2022/03/21 08:16:47;;;;;;;18.67;13.37;;;;;;;;;;7371514;19;20364;-80
2022/03/21 08:19:17;;;;;;;17.07;12.80;;;;;;;;;;7357478;19;20410;-82
2022/03/21 08:21:47;;;;;;;16.17;12.07;;;;;;;;;;7377408;19;20900;-79
2022/03/21 08:24:17;;;;;;;14.37;11.50;;;;;;;;;;7365526;19;20443;-80
2022/03/21 08:26:46;;;;;;;17.90;11.43;;;;;;;;;;7374302;19;20420;-78
2022/03/21 08:29:18;;;;;;;16.47;11.60;;;;;;;;;;7376614;19;20399;-79
2022/03/21 08:31:50;;;;;;;18.47;10.40;;;;;;;;;;7364716;19;20407;-77
2022/03/21 08:34:20;;;;;;;14.13;11.90;;;;;;;;;;7366460;19;21026;-78
2022/03/21 08:36:50;;;;;;;16.30;11.83;;;;;;;;;;7371918;19;20853;-79
2022/03/21 08:39:19;;;;;;;14.20;11.73;;;;;;;;;;7374029;19;20376;-79
2022/03/21 08:41:49;;;;;;;16.33;12.17;;;;;;;;;;7363441;19;20400;-80
2022/03/21 08:44:20;;;;;;;14.70;13.00;;;;;;;;;;7365417;19;20461;-78
2022/03/21 08:46:53;;;;;;;17.07;13.77;;;;;;;;;;7361666;19;20419;-78
2022/03/21 08:49:33;;;;;;;16.10;13.60;;;;;;;;;;7361891;19;20404;-79
2022/03/21 08:52:05;;;;;;;17.77;14.27;;;;;;;;;;7372611;19;20412;-79
2022/03/21 08:54:36;;;;;;;19.33;13.37;;;;;;;;;;7370940;19;20416;-79
2022/03/21 08:57:05;;;;;;;14.00;11.33;;;;;;;;;;7229999;19;2831315;-78
2022/03/21 08:59:36;;;;;;;14.00;12.63;;;;;;;;;;7375041;19;20619;-79
2022/03/21 09:02:12;;;;;;;15.47;13.23;;;;;;;;;;7376705;19;20368;-79
2022/03/21 09:04:42;;;;;;;20.90;13.60;;;;;;;;;;7377832;19;20397;-79
2022/03/21 09:07:13;;;;;;;20.73;14.33;;;;;;;;;;7378052;19;20387;-78
2022/03/21 09:09:42;;;;;;;15.60;12.97;;;;;;;;;;7375235;19;20380;-79
2022/03/21 09:12:12;;;;;;;16.00;14.13;;;;;;;;;;7381747;19;20413;-80
2022/03/21 09:14:42;;;;;;;17.83;12.70;;;;;;;;;;7380365;19;20388;-79
2022/03/21 09:17:15;;;;;;;17.20;13.60;;;;;;;;;;7371964;19;20412;-79
2022/03/21 09:19:44;;;;;;;14.57;12.70;;;;;;;;;;7377846;19;20434;-79
2022/03/21 09:22:14;;;;;;;16.40;13.67;;;;;;;;;;7377615;19;20423;-80
2022/03/21 09:24:44;;;;;;;16.87;15.13;;;;;;;;;;7380640;19;20405;-79
2022/03/21 09:27:14;;;;;;;16.10;13.90;;;;;;;;;;7374735;19;20835;-79
2022/03/21 09:29:43;;;;;;;29.30;26.00;;;;;;;;;;7376828;19;20944;-79
2022/03/21 09:32:16;;;;;;;18.93;16.13;;;;;;;;;;7376085;19;20800;-80
2022/03/21 09:34:46;;;;;;;16.00;12.97;;;;;;;;;;7373352;19;20383;-81
2022/03/21 09:37:15;;;;;;;15.60;13.13;;;;;;;;;;7375370;19;21262;-79
2022/03/21 09:39:45;;;;;;;15.37;13.77;;;;;;;;;;7376459;19;20400;-81
2022/03/21 09:42:15;;;;;;;18.97;17.03;;;;;;;;;;7378807;19;20420;-80
2022/03/21 09:44:45;;;;;;;15.77;13.83;;;;;;;;;;7374808;19;20380;-80
2022/03/21 09:50:07;;;;;;;16.33;13.10;;;;;;;;;;7378953;19;20777;-80
2022/03/21 09:52:37;;;;;;;16.17;13.67;;;;;;;;;;7375280;19;21403;-79
2022/03/21 09:55:13;;;;;;;20.20;13.67;;;;;;;;;;7374387;19;20463;-79
2022/03/21 09:57:42;;;;;;;15.50;13.87;;;;;;;;;;7374235;19;20396;-80
2022/03/21 10:00:12;;;;;;;15.63;14.07;;;;;;;;;;7375515;19;21372;-79
2022/03/21 10:02:45;;;;;;;17.60;14.63;;;;;;;;;;7400206;19;20450;-79
2022/03/21 10:05:32;;;;;;;15.97;14.47;;;;;;;;;;7417962;19;20392;-79
2022/03/21 10:08:12;;;;;;;15.73;13.50;;;;;;;;;;7417626;19;21601;-80
2022/03/21 10:10:42;;;;;;;15.83;14.20;;;;;;;;;;7417891;19;20388;-80
2022/03/21 10:13:12;;;;;;;16.00;13.67;;;;;;;;;;7413648;19;20400;-80
2022/03/21 10:15:41;;;;;;;14.60;13.10;;;;;;;;;;7417638;19;20412;-80
2022/03/21 10:18:14;;;;;;;15.43;13.83;;;;;;;;;;7419632;19;20429;-80
2022/03/21 10:20:44;;;;;;;17.43;14.63;;;;;;;;;;7425287;19;20430;-80
2022/03/21 10:23:18;;;;;;;17.13;14.97;;;;;;;;;;7424813;19;20409;-80
2022/03/21 10:25:47;;;;;;;17.13;14.63;;;;;;;;;;7427819;19;20412;-79
2022/03/21 10:28:32;;;;;;;15.37;13.77;;;;;;;;;;7430088;19;20416;-80
2022/03/21 10:31:01;;;;;;;17.00;14.03;;;;;;;;;;7418505;19;20408;-80
2022/03/21 10:33:34;;;;;;;15.80;13.77;;;;;;;;;;7386427;19;20502;-80
2022/03/21 10:36:06;;;;;;;16.63;14.93;;;;;;;;;;7386914;19;20400;-80
2022/03/21 10:38:37;;;;;;;17.67;15.73;;;;;;;;;;7384225;19;20419;-85
2022/03/21 10:41:11;;;;;;;16.10;14.43;;;;;;;;;;7381274;19;20503;-84
2022/03/21 10:43:40;;;;;;;16.97;15.23;;;;;;;;;;7381009;19;20451;-84
2022/03/21 10:46:12;;;;;;;17.67;15.73;;;;;;;;;;7379017;19;20755;-86
2022/03/21 10:48:44;;;;;;;17.17;15.50;;;;;;;;;;7381252;19;20527;-83
2022/03/21 10:51:17;;;;;;;17.20;15.23;;;;;;;;;;7376308;19;20884;-83
2022/03/21 10:53:47;;;;;;;34.40;17.30;;;;;;;;;;7370958;19;20432;-83
2022/03/21 10:56:16;;;;;;;22.90;16.30;;;;;;;;;;7374463;19;20388;-83
2022/03/21 10:58:51;;;;;;;18.37;16.43;;;;;;;;;;7368636;19;20400;-79
2022/03/21 11:01:21;;;;;;;17.20;15.40;;;;;;;;;;7373906;19;20415;-79
2022/03/21 11:03:56;;;;;;;17.67;15.77;;;;;;;;;;7368159;19;20514;-77
2022/03/21 11:06:27;;;;;;;18.80;15.23;;;;;;;;;;7362487;19;20399;-78
2022/03/21 11:08:57;;;;;;;19.50;16.43;;;;;;;;;;7369668;19;20417;-79
2022/03/21 11:11:27;;;;;;;18.47;16.23;;;;;;;;;;7370640;19;20507;-79
2022/03/21 11:13:57;;;;;;;19.07;17.00;;;;;;;;;;7368662;19;20408;-79
2022/03/21 11:16:27;;;;;;;18.90;15.57;;;;;;;;;;7364852;19;20421;-79
2022/03/21 11:18:59;;;;;;;17.60;14.87;;;;;;;;;;7369040;19;20748;-78
2022/03/21 11:21:30;;;;;;;19.27;15.70;;;;;;;;;;7368959;19;20412;-78
2022/03/21 11:24:00;;;;;;;16.43;14.80;;;;;;;;;;7367273;19;20405;-78
2022/03/21 11:26:33;;;;;;;19.20;14.83;;;;;;;;;;7364257;19;20420;-79
2022/03/21 11:29:18;;;;;;;18.03;16.13;;;;;;;;;;7365168;19;21051;-79
2022/03/21 11:31:57;;;;;;;18.60;16.20;;;;;;;;;;7367655;19;20439;-80
2022/03/21 11:34:40;;;;;;;20.40;15.20;;;;;;;;;;7368691;19;20746;-77
2022/03/21 11:37:25;;;;;;;17.40;14.50;;;;;;;;;;7372633;19;20404;-78
2022/03/21 11:40:10;;;;;;;22.27;16.40;;;;;;;;;;7378482;19;20495;-76
2022/03/21 11:42:39;;;;;;;17.53;15.47;;;;;;;;;;7366857;19;20420;-78
2022/03/21 11:45:24;;;;;;;20.03;15.33;;;;;;;;;;7376078;19;20439;-79
2022/03/21 11:47:54;;;;;;;19.93;15.77;;;;;;;;;;7366200;19;20405;-78
2022/03/21 11:50:31;;;;;;;18.50;15.87;;;;;;;;;;7374449;19;20416;-79
2022/03/21 11:53:08;;;;;;;17.83;15.27;;;;;;;;;;7370415;19;20447;-79
2022/03/21 11:55:41;;;;;;;17.30;15.50;;;;;;;;;;7376595;19;20443;-78
2022/03/21 11:58:28;;;;;;;17.70;15.50;;;;;;;;;;7378994;19;20406;-78
2022/03/21 12:01:08;;;;;;;16.53;14.20;;;;;;;;;;7367458;19;20864;-79
2022/03/21 12:03:38;;;;;;;81.93;25.03;;;;;;;;;;7364847;19;20400;-79
2022/03/21 12:06:23;;;;;;;18.67;16.33;;;;;;;;;;7374899;19;21567;-78
2022/03/21 12:08:59;;;;;;;18.80;14.93;;;;;;;;;;7362696;19;20425;-77
2022/03/21 12:11:53;;;;;;;15.30;13.77;;;;;;;;;;7380445;19;20443;-78
2022/03/21 12:14:28;;;;;;;17.83;15.73;;;;;;;;;;7379525;19;20421;-78
2022/03/21 12:17:13;;;;;;;17.73;15.33;;;;;;;;;;7378910;19;20403;-78
2022/03/21 12:19:58;;;;;;;15.80;14.10;;;;;;;;;;7381660;19;21459;-77
2022/03/21 12:22:40;;;;;;;15.30;13.73;;;;;;;;;;7381793;19;20412;-78
2022/03/21 12:25:20;;;;;;;18.83;14.07;;;;;;;;;;7378805;19;20384;-78
2022/03/21 12:27:55;;;;;;;16.30;14.67;;;;;;;;;;7382660;19;20977;-77
2022/03/21 12:30:38;;;;;;;16.13;13.40;;;;;;;;;;7381114;19;20380;-77
2022/03/21 12:33:27;;;;;;;16.10;13.77;;;;;;;;;;7377603;19;20392;-78
2022/03/21 12:36:05;;;;;;;18.90;17.00;;;;;;;;;;7381632;19;20907;-78
2022/03/21 12:38:36;;;;;;;18.30;15.60;;;;;;;;;;7379263;19;20384;-78
2022/03/21 12:41:10;;;;;;;18.50;15.30;;;;;;;;;;7382394;19;20505;-78
2022/03/21 12:43:56;;;;;;;16.90;14.33;;;;;;;;;;7379657;19;21084;-77
2022/03/21 12:46:27;;;;;;;16.60;13.00;;;;;;;;;;7379174;19;20372;-78
2022/03/21 12:48:58;;;;;;;15.67;13.40;;;;;;;;;;7380305;19;21001;-79
2022/03/21 12:51:30;;;;;;;16.97;14.10;;;;;;;;;;7379504;19;20387;-78
2022/03/21 12:54:02;;;;;;;13.90;12.20;;;;;;;;;;7377978;19;20864;-79
2022/03/21 12:56:35;;;;;;;14.60;13.17;;;;;;;;;;7398032;19;20416;-77
2022/03/21 12:59:07;;;;;;;15.87;12.87;;;;;;;;;;7420725;19;20405;-77
2022/03/21 13:01:36;;;;;;;13.83;12.10;;;;;;;;;;7420530;19;20400;-77
2022/03/21 13:12:31;;;;;;;17.37;12.97;;;;;;;;;;7421773;19;20461;-77
2022/03/21 13:15:06;;;;;;;14.30;11.57;;;;;;;;;;7428378;19;20400;-77
2022/03/21 13:17:46;;;;;;;12.13;10.87;;;;;;;;;;7406060;19;20462;-77
2022/03/21 13:20:17;;;;;;;12.67;11.00;;;;;;;;;;7431708;19;20432;-77
2022/03/21 13:22:49;;;;;;;12.13;10.83;;;;;;;;;;7432452;19;20417;-77
2022/03/21 13:25:24;;;;;;;11.93;10.70;;;;;;;;;;7410647;19;20491;-78
2022/03/21 13:28:08;;;;;;;14.40;10.97;;;;;;;;;;7394946;19;20406;-78
2022/03/21 13:30:39;;;;;;;13.40;10.63;;;;;;;;;;7385833;19;20447;-77
2022/03/21 13:33:11;;;;;;;10.97;9.87;;;;;;;;;;7383931;19;20392;-77
2022/03/21 13:35:53;;;;;;;11.17;9.90;;;;;;;;;;7384366;19;20372;-77
2022/03/21 13:38:26;;;;;;;12.07;10.57;;;;;;;;;;7381230;19;20393;-77
2022/03/21 13:40:57;;;;;;;16.57;10.00;;;;;;;;;;7380651;19;20397;-77
2022/03/21 13:43:32;;;;;;;13.93;10.00;;;;;;;;;;7380766;19;20758;-78
2022/03/21 13:46:03;;;;;;;14.73;10.10;;;;;;;;;;7379895;19;20367;-77
2022/03/21 13:48:38;;;;;;;17.60;10.80;;;;;;;;;;7380781;19;20388;-77
2022/03/21 13:51:11;;;;;;;13.50;10.00;;;;;;;;;;7379065;19;20422;-78
2022/03/21 13:53:43;;;;;;;13.77;11.00;;;;;;;;;;7378972;19;20447;-78
2022/03/21 13:56:15;;;;;;;13.73;10.07;;;;;;;;;;7377340;19;21420;-78
2022/03/21 13:58:47;;;;;;;12.67;10.60;;;;;;;;;;7378928;19;20438;-78
2022/03/21 14:01:20;;;;;;;14.30;10.70;;;;;;;;;;7381760;19;20486;-78
2022/03/21 14:03:53;;;;;;;12.13;9.93;;;;;;;;;;7379569;19;20884;-78
2022/03/21 14:06:22;;;;;;;13.30;10.33;;;;;;;;;;7381033;19;20756;-78
2022/03/21 14:09:02;;;;;;;14.20;10.90;;;;;;;;;;7379410;19;20413;-78
2022/03/21 14:11:36;;;;;;;11.83;9.70;;;;;;;;;;7377865;19;20388;-78
2022/03/21 14:14:11;;;;;;;15.50;11.00;;;;;;;;;;7376758;19;20416;-78
2022/03/21 14:16:41;;;;;;;10.60;9.33;;;;;;;;;;7379183;19;20377;-78
2022/03/21 14:19:19;;;;;;;13.80;10.50;;;;;;;;;;7379789;19;20376;-78
2022/03/21 14:21:50;;;;;;;13.23;11.00;;;;;;;;;;7379664;19;20419;-77
2022/03/21 14:24:22;;;;;;;12.33;9.50;;;;;;;;;;7379957;19;20416;-78
2022/03/21 14:26:54;;;;;;;21.23;12.70;;;;;;;;;;7378378;19;20893;-77
2022/03/21 14:29:26;;;;;;;14.83;12.43;;;;;;;;;;7376458;19;20751;-77
2022/03/21 14:31:56;;;;;;;12.63;11.23;;;;;;;;;;7375969;19;20403;-77
2022/03/21 14:34:26;;;;;;;13.60;9.60;;;;;;;;;;7376356;19;20364;-77
2022/03/21 14:36:59;;;;;;;14.60;10.60;;;;;;;;;;7379208;19;20408;-77
2022/03/21 14:39:29;;;;;;;12.97;10.80;;;;;;;;;;7375485;19;20938;-77
2022/03/21 14:41:59;;;;;;;15.77;11.50;;;;;;;;;;7378261;19;20912;-77
2022/03/21 14:44:32;;;;;;;20.43;10.70;;;;;;;;;;7368391;19;21038;-77
2022/03/21 14:47:02;;;;;;;19.87;11.60;;;;;;;;;;7368307;19;21054;-79
2022/03/21 14:49:32;;;;;;;16.27;13.17;;;;;;;;;;7370339;19;20412;-80
2022/03/21 14:52:01;;;;;;;14.00;10.80;;;;;;;;;;7371684;19;20380;-79
2022/03/21 14:54:31;;;;;;;14.37;10.70;;;;;;;;;;7370728;19;20445;-80
2022/03/21 14:57:01;;;;;;;15.10;10.40;;;;;;;;;;7374885;19;20384;-83
2022/03/21 14:59:33;;;;;;;13.50;10.73;;;;;;;;;;7378921;19;20420;-81
2022/03/21 15:02:03;;;;;;;16.73;10.47;;;;;;;;;;7364740;19;20443;-81
2022/03/21 15:04:33;;;;;;;14.27;11.13;;;;;;;;;;7369770;19;20786;-82
2022/03/21 15:07:04;;;;;;;21.87;11.00;;;;;;;;;;7372103;19;20400;-81
2022/03/21 15:10:20;;;;;;;16.17;11.93;;;;;;;;;;7375693;19;20404;-81
2022/03/21 15:12:23;;;;;;;15.47;11.47;;;;;;;;;;7372058;19;20411;-81
2022/03/21 15:14:58;;;;;;;17.90;11.57;;;;;;;;;;7368994;19;20403;-79
2022/03/21 15:17:28;;;;;;;19.37;12.77;;;;;;;;;;7380712;19;20455;-81